sensor_id;sensor_type;location;lat;lon;timestamp;temperature;humidity
9057;DHT22;4563;54.756;9.400;2023-11-19T00:00:11;7.80;81.80
9057;DHT22;4563;54.756;9.400;2023-11-19T00:02:39;7.80;81.80
9057;DHT22;4563;54.756;9.400;2023-11-19T00:05:07;7.80;81.80
9057;DHT22;4563;54.756;9.400;2023-11-19T00:07:38;7.80;81.80
9057;DHT22;4563;54.756;9.400;2023-11-19T00:10:08;7.80;81.80
9057;DHT22;4563;54.756;9.400;2023-11-19T00:12:38;7.80;81.90
9057;DHT22;4563;54.756;9.400;2023-11-19T00:15:06;7.80;81.80
9057;DHT22;4563;54.756;9.400;2023-11-19T00:17:36;7.80;81.80
9057;DHT22;4563;54.756;9.400;2023-11-19T00:20:05;7.80;81.80
9057;DHT22;4563;54.756;9.400;2023-11-19T00:22:33;7.80;81.80
9057;DHT22;4563;54.756;9.400;2023-11-19T00:25:01;7.80;81.90
9057;DHT22;4563;54.756;9.400;2023-11-19T00:27:29;7.80;81.80
9057;DHT22;4563;54.756;9.400;2023-11-19T00:29:56;7.80;81.90
9057;DHT22;4563;54.756;9.400;2023-11-19T00:32:23;7.80;81.80
9057;DHT22;4563;54.756;9.400;2023-11-19T00:34:50;7.80;81.90
9057;DHT22;4563;54.756;9.400;2023-11-19T00:37:17;7.80;81.80
9057;DHT22;4563;54.756;9.400;2023-11-19T00:39:44;7.80;81.90
9057;DHT22;4563;54.756;9.400;2023-11-19T00:42:12;7.80;81.80
9057;DHT22;4563;54.756;9.400;2023-11-19T00:44:40;7.80;81.90
9057;DHT22;4563;54.756;9.400;2023-11-19T00:47:06;7.80;81.80
9057;DHT22;4563;54.756;9.400;2023-11-19T00:49:33;7.80;81.90
9057;DHT22;4563;54.756;9.400;2023-11-19T00:52:00;7.90;82.00
9057;DHT22;4563;54.756;9.400;2023-11-19T00:54:27;7.80;81.90
9057;DHT22;4563;54.756;9.400;2023-11-19T00:56:54;7.80;81.90
9057;DHT22;4563;54.756;9.400;2023-11-19T00:59:23;7.90;82.00
9057;DHT22;4563;54.756;9.400;2023-11-19T01:01:50;7.80;81.90
9057;DHT22;4563;54.756;9.400;2023-11-19T01:04:17;7.80;81.90
9057;DHT22;4563;54.756;9.400;2023-11-19T01:06:44;7.80;81.90
9057;DHT22;4563;54.756;9.400;2023-11-19T01:09:11;7.90;82.00
9057;DHT22;4563;54.756;9.400;2023-11-19T01:11:37;7.90;82.00
9057;DHT22;4563;54.756;9.400;2023-11-19T01:14:04;7.90;82.00
9057;DHT22;4563;54.756;9.400;2023-11-19T01:16:32;7.80;82.10
9057;DHT22;4563;54.756;9.400;2023-11-19T01:18:59;7.90;82.00
9057;DHT22;4563;54.756;9.400;2023-11-19T01:21:30;7.90;82.00
9057;DHT22;4563;54.756;9.400;2023-11-19T01:23:57;7.90;82.10
9057;DHT22;4563;54.756;9.400;2023-11-19T01:26:25;7.90;82.10
9057;DHT22;4563;54.756;9.400;2023-11-19T01:28:54;7.90;82.10
9057;DHT22;4563;54.756;9.400;2023-11-19T01:31:21;7.80;82.00
9057;DHT22;4563;54.756;9.400;2023-11-19T01:33:49;7.90;82.10
9057;DHT22;4563;54.756;9.400;2023-11-19T01:36:16;7.90;82.10
9057;DHT22;4563;54.756;9.400;2023-11-19T01:38:43;7.90;82.10
9057;DHT22;4563;54.756;9.400;2023-11-19T01:41:10;7.90;82.10
9057;DHT22;4563;54.756;9.400;2023-11-19T01:43:38;7.90;82.10
9057;DHT22;4563;54.756;9.400;2023-11-19T01:46:05;7.90;82.10
9057;DHT22;4563;54.756;9.400;2023-11-19T01:48:34;7.90;82.10
9057;DHT22;4563;54.756;9.400;2023-11-19T01:51:04;7.90;82.20
9057;DHT22;4563;54.756;9.400;2023-11-19T01:53:32;7.90;82.20
9057;DHT22;4563;54.756;9.400;2023-11-19T01:56:04;7.90;82.20
9057;DHT22;4563;54.756;9.400;2023-11-19T01:58:33;7.90;82.20
9057;DHT22;4563;54.756;9.400;2023-11-19T02:00:59;7.90;82.20
9057;DHT22;4563;54.756;9.400;2023-11-19T02:03:30;7.90;82.20
9057;DHT22;4563;54.756;9.400;2023-11-19T02:05:58;7.90;82.20
9057;DHT22;4563;54.756;9.400;2023-11-19T02:08:26;7.90;82.20
9057;DHT22;4563;54.756;9.400;2023-11-19T02:10:53;7.90;82.20
9057;DHT22;4563;54.756;9.400;2023-11-19T02:13:22;7.90;82.20
9057;DHT22;4563;54.756;9.400;2023-11-19T02:15:49;7.90;82.20
9057;DHT22;4563;54.756;9.400;2023-11-19T02:18:20;7.90;82.20
9057;DHT22;4563;54.756;9.400;2023-11-19T02:20:47;7.90;82.20
9057;DHT22;4563;54.756;9.400;2023-11-19T02:23:15;7.90;82.20
9057;DHT22;4563;54.756;9.400;2023-11-19T02:25:43;7.90;82.20
9057;DHT22;4563;54.756;9.400;2023-11-19T02:28:17;7.90;82.20
9057;DHT22;4563;54.756;9.400;2023-11-19T02:30:44;7.90;82.20
9057;DHT22;4563;54.756;9.400;2023-11-19T02:33:10;7.90;82.20
9057;DHT22;4563;54.756;9.400;2023-11-19T02:35:38;7.90;82.20
9057;DHT22;4563;54.756;9.400;2023-11-19T02:38:06;7.90;82.20
9057;DHT22;4563;54.756;9.400;2023-11-19T02:40:33;7.90;82.20
9057;DHT22;4563;54.756;9.400;2023-11-19T02:43:00;7.90;82.20
9057;DHT22;4563;54.756;9.400;2023-11-19T02:45:28;7.90;82.20
9057;DHT22;4563;54.756;9.400;2023-11-19T02:47:56;7.90;82.20
9057;DHT22;4563;54.756;9.400;2023-11-19T02:50:23;7.90;82.20
9057;DHT22;4563;54.756;9.400;2023-11-19T02:52:52;7.90;82.30
9057;DHT22;4563;54.756;9.400;2023-11-19T02:55:22;8.00;82.30
9057;DHT22;4563;54.756;9.400;2023-11-19T02:57:49;7.90;82.20
9057;DHT22;4563;54.756;9.400;2023-11-19T03:00:19;7.90;82.20
9057;DHT22;4563;54.756;9.400;2023-11-19T03:02:50;7.90;82.30
9057;DHT22;4563;54.756;9.400;2023-11-19T03:05:25;7.90;82.30
9057;DHT22;4563;54.756;9.400;2023-11-19T03:07:52;7.90;82.30
9057;DHT22;4563;54.756;9.400;2023-11-19T03:10:19;7.90;82.30
9057;DHT22;4563;54.756;9.400;2023-11-19T03:12:45;7.90;82.20
9057;DHT22;4563;54.756;9.400;2023-11-19T03:15:12;7.90;82.30
9057;DHT22;4563;54.756;9.400;2023-11-19T03:17:40;7.90;82.30
9057;DHT22;4563;54.756;9.400;2023-11-19T03:20:10;8.00;82.30
9057;DHT22;4563;54.756;9.400;2023-11-19T03:22:40;8.00;82.30
9057;DHT22;4563;54.756;9.400;2023-11-19T03:25:08;8.00;82.40
9057;DHT22;4563;54.756;9.400;2023-11-19T03:27:35;8.00;82.30
9057;DHT22;4563;54.756;9.400;2023-11-19T03:30:03;8.00;82.30
9057;DHT22;4563;54.756;9.400;2023-11-19T03:32:30;8.00;82.30
9057;DHT22;4563;54.756;9.400;2023-11-19T03:34:58;8.00;82.30
9057;DHT22;4563;54.756;9.400;2023-11-19T03:37:26;8.00;82.30
9057;DHT22;4563;54.756;9.400;2023-11-19T03:39:53;8.00;82.30
9057;DHT22;4563;54.756;9.400;2023-11-19T03:42:21;8.00;82.30
9057;DHT22;4563;54.756;9.400;2023-11-19T03:44:48;8.00;82.30
9057;DHT22;4563;54.756;9.400;2023-11-19T03:47:16;8.00;82.30
9057;DHT22;4563;54.756;9.400;2023-11-19T03:49:42;8.00;82.30
9057;DHT22;4563;54.756;9.400;2023-11-19T03:52:09;8.00;82.40
9057;DHT22;4563;54.756;9.400;2023-11-19T03:54:37;8.00;82.40
9057;DHT22;4563;54.756;9.400;2023-11-19T03:57:04;8.00;82.40
9057;DHT22;4563;54.756;9.400;2023-11-19T03:59:31;8.00;82.40
9057;DHT22;4563;54.756;9.400;2023-11-19T04:01:58;8.00;82.40
9057;DHT22;4563;54.756;9.400;2023-11-19T04:04:26;8.00;82.40
9057;DHT22;4563;54.756;9.400;2023-11-19T04:06:53;8.00;82.40
9057;DHT22;4563;54.756;9.400;2023-11-19T04:09:20;8.00;82.40
9057;DHT22;4563;54.756;9.400;2023-11-19T04:11:48;8.10;82.50
9057;DHT22;4563;54.756;9.400;2023-11-19T04:14:15;8.00;82.40
9057;DHT22;4563;54.756;9.400;2023-11-19T04:16:43;8.10;82.50
9057;DHT22;4563;54.756;9.400;2023-11-19T04:19:10;8.10;82.50
9057;DHT22;4563;54.756;9.400;2023-11-19T04:21:39;8.00;82.50
9057;DHT22;4563;54.756;9.400;2023-11-19T04:24:07;8.00;83.20
9057;DHT22;4563;54.756;9.400;2023-11-19T04:26:34;8.10;82.50
9057;DHT22;4563;54.756;9.400;2023-11-19T04:29:03;8.00;82.40
9057;DHT22;4563;54.756;9.400;2023-11-19T04:31:30;8.10;82.50
9057;DHT22;4563;54.756;9.400;2023-11-19T04:33:58;8.10;82.50
9057;DHT22;4563;54.756;9.400;2023-11-19T04:36:25;8.10;82.50
9057;DHT22;4563;54.756;9.400;2023-11-19T04:38:52;8.10;82.50
9057;DHT22;4563;54.756;9.400;2023-11-19T04:41:19;8.10;82.50
9057;DHT22;4563;54.756;9.400;2023-11-19T04:43:46;8.10;82.50
9057;DHT22;4563;54.756;9.400;2023-11-19T04:46:14;8.10;82.50
9057;DHT22;4563;54.756;9.400;2023-11-19T04:48:41;8.10;82.50
9057;DHT22;4563;54.756;9.400;2023-11-19T04:51:08;8.10;82.50
9057;DHT22;4563;54.756;9.400;2023-11-19T04:53:36;8.10;82.60
9057;DHT22;4563;54.756;9.400;2023-11-19T04:56:07;8.10;82.50
9057;DHT22;4563;54.756;9.400;2023-11-19T04:58:35;8.10;82.50
9057;DHT22;4563;54.756;9.400;2023-11-19T05:01:03;8.10;82.50
9057;DHT22;4563;54.756;9.400;2023-11-19T05:03:31;8.10;82.50
9057;DHT22;4563;54.756;9.400;2023-11-19T05:05:58;8.10;82.50
9057;DHT22;4563;54.756;9.400;2023-11-19T05:08:25;8.20;82.70
9057;DHT22;4563;54.756;9.400;2023-11-19T05:10:51;8.20;82.60
9057;DHT22;4563;54.756;9.400;2023-11-19T05:13:18;8.10;83.30
9057;DHT22;4563;54.756;9.400;2023-11-19T05:15:45;8.20;82.60
9057;DHT22;4563;54.756;9.400;2023-11-19T05:18:12;8.20;82.60
9057;DHT22;4563;54.756;9.400;2023-11-19T05:20:40;8.20;82.60
9057;DHT22;4563;54.756;9.400;2023-11-19T05:23:07;8.20;82.60
9057;DHT22;4563;54.756;9.400;2023-11-19T05:25:33;8.20;82.50
9057;DHT22;4563;54.756;9.400;2023-11-19T05:28:00;8.20;82.50
9057;DHT22;4563;54.756;9.400;2023-11-19T05:30:27;8.20;82.60
9057;DHT22;4563;54.756;9.400;2023-11-19T05:32:54;8.20;82.60
9057;DHT22;4563;54.756;9.400;2023-11-19T05:35:21;8.30;82.70
9057;DHT22;4563;54.756;9.400;2023-11-19T05:37:49;8.30;82.70
9057;DHT22;4563;54.756;9.400;2023-11-19T05:40:16;8.30;82.70
9057;DHT22;4563;54.756;9.400;2023-11-19T05:42:43;8.30;82.60
9057;DHT22;4563;54.756;9.400;2023-11-19T05:45:12;8.30;82.70
9057;DHT22;4563;54.756;9.400;2023-11-19T05:47:38;8.30;82.60
9057;DHT22;4563;54.756;9.400;2023-11-19T05:50:06;8.30;82.60
9057;DHT22;4563;54.756;9.400;2023-11-19T05:52:34;8.30;82.70
9057;DHT22;4563;54.756;9.400;2023-11-19T05:55:02;8.30;82.70
9057;DHT22;4563;54.756;9.400;2023-11-19T05:57:31;8.30;82.60
9057;DHT22;4563;54.756;9.400;2023-11-19T06:00:00;8.30;82.60
9057;DHT22;4563;54.756;9.400;2023-11-19T06:02:27;8.30;82.60
9057;DHT22;4563;54.756;9.400;2023-11-19T06:04:53;8.30;82.60
9057;DHT22;4563;54.756;9.400;2023-11-19T06:07:20;8.40;82.70
9057;DHT22;4563;54.756;9.400;2023-11-19T06:09:47;8.40;82.70
9057;DHT22;4563;54.756;9.400;2023-11-19T06:12:15;8.40;82.70
9057;DHT22;4563;54.756;9.400;2023-11-19T06:14:42;8.40;82.70
9057;DHT22;4563;54.756;9.400;2023-11-19T06:17:09;8.40;82.70
9057;DHT22;4563;54.756;9.400;2023-11-19T06:19:36;8.40;82.70
9057;DHT22;4563;54.756;9.400;2023-11-19T06:22:03;8.40;82.60
9057;DHT22;4563;54.756;9.400;2023-11-19T06:24:30;8.40;82.60
9057;DHT22;4563;54.756;9.400;2023-11-19T06:26:57;8.40;82.60
9057;DHT22;4563;54.756;9.400;2023-11-19T06:29:25;8.50;82.70
9057;DHT22;4563;54.756;9.400;2023-11-19T06:31:52;8.50;82.70
9057;DHT22;4563;54.756;9.400;2023-11-19T06:34:19;8.50;82.70
9057;DHT22;4563;54.756;9.400;2023-11-19T06:36:46;8.50;82.70
9057;DHT22;4563;54.756;9.400;2023-11-19T06:39:13;8.50;82.70
9057;DHT22;4563;54.756;9.400;2023-11-19T06:41:44;8.50;82.70
9057;DHT22;4563;54.756;9.400;2023-11-19T06:44:11;8.50;82.70
9057;DHT22;4563;54.756;9.400;2023-11-19T06:46:39;8.50;82.70
9057;DHT22;4563;54.756;9.400;2023-11-19T06:49:06;8.60;82.80
9057;DHT22;4563;54.756;9.400;2023-11-19T06:51:33;8.50;82.70
9057;DHT22;4563;54.756;9.400;2023-11-19T06:54:00;8.60;82.70
9057;DHT22;4563;54.756;9.400;2023-11-19T06:56:27;8.60;82.70
9057;DHT22;4563;54.756;9.400;2023-11-19T06:58:54;8.60;82.80
9057;DHT22;4563;54.756;9.400;2023-11-19T07:01:21;8.60;82.80
9057;DHT22;4563;54.756;9.400;2023-11-19T07:03:49;8.60;82.80
9057;DHT22;4563;54.756;9.400;2023-11-19T07:06:17;8.70;82.80
9057;DHT22;4563;54.756;9.400;2023-11-19T07:08:44;8.60;82.80
9057;DHT22;4563;54.756;9.400;2023-11-19T07:11:12;8.70;82.80
9057;DHT22;4563;54.756;9.400;2023-11-19T07:13:40;8.60;82.70
9057;DHT22;4563;54.756;9.400;2023-11-19T07:16:07;8.70;82.90
9057;DHT22;4563;54.756;9.400;2023-11-19T07:18:36;8.70;82.90
9057;DHT22;4563;54.756;9.400;2023-11-19T07:21:06;8.70;82.80
9057;DHT22;4563;54.756;9.400;2023-11-19T07:23:35;8.70;82.90
9057;DHT22;4563;54.756;9.400;2023-11-19T07:26:05;8.70;82.90
9057;DHT22;4563;54.756;9.400;2023-11-19T07:28:33;8.70;82.90
9057;DHT22;4563;54.756;9.400;2023-11-19T07:31:00;8.70;82.90
9057;DHT22;4563;54.756;9.400;2023-11-19T07:33:27;8.70;82.90
9057;DHT22;4563;54.756;9.400;2023-11-19T07:35:55;8.80;83.00
9057;DHT22;4563;54.756;9.400;2023-11-19T07:38:23;8.80;83.00
9057;DHT22;4563;54.756;9.400;2023-11-19T07:40:50;8.80;83.00
9057;DHT22;4563;54.756;9.400;2023-11-19T07:43:16;8.80;83.00
9057;DHT22;4563;54.756;9.400;2023-11-19T07:45:43;8.80;83.00
9057;DHT22;4563;54.756;9.400;2023-11-19T07:48:10;8.80;83.00
9057;DHT22;4563;54.756;9.400;2023-11-19T07:50:38;8.80;83.10
9057;DHT22;4563;54.756;9.400;2023-11-19T07:53:06;8.80;83.10
9057;DHT22;4563;54.756;9.400;2023-11-19T07:55:34;8.90;83.10
9057;DHT22;4563;54.756;9.400;2023-11-19T07:58:01;8.90;83.20
9057;DHT22;4563;54.756;9.400;2023-11-19T08:00:28;8.90;83.20
9057;DHT22;4563;54.756;9.400;2023-11-19T08:02:54;8.90;83.10
9057;DHT22;4563;54.756;9.400;2023-11-19T08:05:21;8.90;83.20
9057;DHT22;4563;54.756;9.400;2023-11-19T08:07:50;8.90;83.20
9057;DHT22;4563;54.756;9.400;2023-11-19T08:10:16;9.00;83.30
9057;DHT22;4563;54.756;9.400;2023-11-19T08:12:44;9.00;83.30
9057;DHT22;4563;54.756;9.400;2023-11-19T08:15:10;9.00;83.30
9057;DHT22;4563;54.756;9.400;2023-11-19T08:17:37;9.10;83.40
9057;DHT22;4563;54.756;9.400;2023-11-19T08:20:05;9.00;83.30
9057;DHT22;4563;54.756;9.400;2023-11-19T08:22:35;9.10;83.40
9057;DHT22;4563;54.756;9.400;2023-11-19T08:25:03;9.10;83.40
9057;DHT22;4563;54.756;9.400;2023-11-19T08:27:30;9.20;83.50
9057;DHT22;4563;54.756;9.400;2023-11-19T08:29:58;9.20;83.50
9057;DHT22;4563;54.756;9.400;2023-11-19T08:32:25;9.20;83.50
9057;DHT22;4563;54.756;9.400;2023-11-19T08:34:53;9.30;83.60
9057;DHT22;4563;54.756;9.400;2023-11-19T08:37:19;9.30;83.60
9057;DHT22;4563;54.756;9.400;2023-11-19T08:39:47;9.30;83.60
9057;DHT22;4563;54.756;9.400;2023-11-19T08:42:14;9.30;83.60
9057;DHT22;4563;54.756;9.400;2023-11-19T08:44:41;9.40;83.70
9057;DHT22;4563;54.756;9.400;2023-11-19T08:47:11;9.40;83.80
9057;DHT22;4563;54.756;9.400;2023-11-19T08:49:38;9.50;83.80
9057;DHT22;4563;54.756;9.400;2023-11-19T08:52:05;9.50;83.90
9057;DHT22;4563;54.756;9.400;2023-11-19T08:54:32;9.50;83.90
9057;DHT22;4563;54.756;9.400;2023-11-19T08:56:59;9.60;84.00
9057;DHT22;4563;54.756;9.400;2023-11-19T08:59:28;9.70;84.10
9057;DHT22;4563;54.756;9.400;2023-11-19T09:01:55;9.70;84.10
9057;DHT22;4563;54.756;9.400;2023-11-19T09:04:23;9.80;84.20
9057;DHT22;4563;54.756;9.400;2023-11-19T09:06:50;9.90;84.30
9057;DHT22;4563;54.756;9.400;2023-11-19T09:09:16;9.90;84.20
9057;DHT22;4563;54.756;9.400;2023-11-19T09:11:43;10.00;83.20
9057;DHT22;4563;54.756;9.400;2023-11-19T09:14:10;10.10;83.20
9057;DHT22;4563;54.756;9.400;2023-11-19T09:16:36;10.10;83.20
9057;DHT22;4563;54.756;9.400;2023-11-19T09:19:03;10.20;83.30
9057;DHT22;4563;54.756;9.400;2023-11-19T09:21:32;10.30;83.30
9057;DHT22;4563;54.756;9.400;2023-11-19T09:24:00;10.30;83.30
9057;DHT22;4563;54.756;9.400;2023-11-19T09:26:26;10.40;84.10
9057;DHT22;4563;54.756;9.400;2023-11-19T09:28:53;10.50;83.40
9057;DHT22;4563;54.756;9.400;2023-11-19T09:31:20;10.50;83.40
9057;DHT22;4563;54.756;9.400;2023-11-19T09:33:47;10.60;83.50
9057;DHT22;4563;54.756;9.400;2023-11-19T09:36:14;10.60;83.50
9057;DHT22;4563;54.756;9.400;2023-11-19T09:38:43;10.70;83.50
9057;DHT22;4563;54.756;9.400;2023-11-19T09:41:10;10.70;83.50
9057;DHT22;4563;54.756;9.400;2023-11-19T09:43:39;10.80;83.60
9057;DHT22;4563;54.756;9.400;2023-11-19T09:46:08;10.90;83.60
9057;DHT22;4563;54.756;9.400;2023-11-19T09:48:37;10.90;83.60
9057;DHT22;4563;54.756;9.400;2023-11-19T09:51:06;11.00;83.70
9057;DHT22;4563;54.756;9.400;2023-11-19T09:53:33;11.00;83.70
9057;DHT22;4563;54.756;9.400;2023-11-19T09:56:02;11.10;83.70
9057;DHT22;4563;54.756;9.400;2023-11-19T09:58:29;11.10;83.70
9057;DHT22;4563;54.756;9.400;2023-11-19T10:00:56;11.10;83.70
9057;DHT22;4563;54.756;9.400;2023-11-19T10:03:25;11.20;83.70
9057;DHT22;4563;54.756;9.400;2023-11-19T10:05:54;11.30;83.80
9057;DHT22;4563;54.756;9.400;2023-11-19T10:08:21;11.30;83.80
9057;DHT22;4563;54.756;9.400;2023-11-19T10:10:48;11.40;83.90
9057;DHT22;4563;54.756;9.400;2023-11-19T10:13:17;11.40;83.90
9057;DHT22;4563;54.756;9.400;2023-11-19T10:15:44;11.40;83.90
9057;DHT22;4563;54.756;9.400;2023-11-19T10:18:10;11.50;83.90
9057;DHT22;4563;54.756;9.400;2023-11-19T10:20:40;11.50;83.90
9057;DHT22;4563;54.756;9.400;2023-11-19T10:23:07;11.50;83.90
9057;DHT22;4563;54.756;9.400;2023-11-19T10:25:35;11.60;84.00
9057;DHT22;4563;54.756;9.400;2023-11-19T10:28:02;11.60;84.00
9057;DHT22;4563;54.756;9.400;2023-11-19T10:30:30;11.70;84.10
9057;DHT22;4563;54.756;9.400;2023-11-19T10:33:04;11.70;84.10
9057;DHT22;4563;54.756;9.400;2023-11-19T10:35:32;11.70;84.00
9057;DHT22;4563;54.756;9.400;2023-11-19T10:38:00;11.80;84.10
9057;DHT22;4563;54.756;9.400;2023-11-19T10:40:39;11.80;84.10
9057;DHT22;4563;54.756;9.400;2023-11-19T10:43:06;11.90;84.10
9057;DHT22;4563;54.756;9.400;2023-11-19T10:45:36;11.90;84.20
9057;DHT22;4563;54.756;9.400;2023-11-19T10:48:04;11.90;84.20
9057;DHT22;4563;54.756;9.400;2023-11-19T10:50:33;12.00;84.30
9057;DHT22;4563;54.756;9.400;2023-11-19T10:53:00;12.00;84.30
9057;DHT22;4563;54.756;9.400;2023-11-19T10:55:28;12.00;84.40
9057;DHT22;4563;54.756;9.400;2023-11-19T10:57:59;12.10;84.40
9057;DHT22;4563;54.756;9.400;2023-11-19T11:00:29;12.10;84.40
9057;DHT22;4563;54.756;9.400;2023-11-19T11:03:01;12.10;84.40
9057;DHT22;4563;54.756;9.400;2023-11-19T11:05:29;12.20;84.40
9057;DHT22;4563;54.756;9.400;2023-11-19T11:08:00;12.20;84.40
9057;DHT22;4563;54.756;9.400;2023-11-19T11:10:28;12.20;84.40
9057;DHT22;4563;54.756;9.400;2023-11-19T11:12:59;12.30;84.50
9057;DHT22;4563;54.756;9.400;2023-11-19T11:15:30;12.30;84.50
9057;DHT22;4563;54.756;9.400;2023-11-19T11:18:01;12.30;84.50
9057;DHT22;4563;54.756;9.400;2023-11-19T11:20:29;12.30;84.50
9057;DHT22;4563;54.756;9.400;2023-11-19T11:23:06;12.40;84.60
9057;DHT22;4563;54.756;9.400;2023-11-19T11:25:44;12.40;84.60
9057;DHT22;4563;54.756;9.400;2023-11-19T11:28:24;12.40;84.50
9057;DHT22;4563;54.756;9.400;2023-11-19T11:31:08;12.40;84.50
9057;DHT22;4563;54.756;9.400;2023-11-19T11:33:54;12.50;84.60
9057;DHT22;4563;54.756;9.400;2023-11-19T11:36:25;12.50;84.70
9057;DHT22;4563;54.756;9.400;2023-11-19T11:38:53;12.60;84.80
9057;DHT22;4563;54.756;9.400;2023-11-19T11:41:25;12.60;84.90
9057;DHT22;4563;54.756;9.400;2023-11-19T11:43:53;12.60;84.80
9057;DHT22;4563;54.756;9.400;2023-11-19T11:46:55;12.60;84.80
9057;DHT22;4563;54.756;9.400;2023-11-19T11:49:27;12.70;84.80
9057;DHT22;4563;54.756;9.400;2023-11-19T11:52:01;12.70;84.90
9057;DHT22;4563;54.756;9.400;2023-11-19T11:54:29;12.70;84.90
9057;DHT22;4563;54.756;9.400;2023-11-19T11:57:07;12.80;85.00
9057;DHT22;4563;54.756;9.400;2023-11-19T11:59:43;12.80;85.00
9057;DHT22;4563;54.756;9.400;2023-11-19T12:02:13;12.90;85.00
9057;DHT22;4563;54.756;9.400;2023-11-19T12:04:41;12.90;85.10
9057;DHT22;4563;54.756;9.400;2023-11-19T12:07:11;12.90;85.10
9057;DHT22;4563;54.756;9.400;2023-11-19T12:09:40;12.90;85.10
9057;DHT22;4563;54.756;9.400;2023-11-19T12:12:17;13.00;85.30
9057;DHT22;4563;54.756;9.400;2023-11-19T12:15:04;13.00;85.20
9057;DHT22;4563;54.756;9.400;2023-11-19T12:17:42;13.00;84.90
9057;DHT22;4563;54.756;9.400;2023-11-19T12:20:16;13.00;85.10
9057;DHT22;4563;54.756;9.400;2023-11-19T12:22:44;13.00;85.10
9057;DHT22;4563;54.756;9.400;2023-11-19T12:25:13;13.10;85.20
9057;DHT22;4563;54.756;9.400;2023-11-19T12:27:40;13.10;85.30
9057;DHT22;4563;54.756;9.400;2023-11-19T12:30:08;13.20;85.40
9057;DHT22;4563;54.756;9.400;2023-11-19T12:32:39;13.20;85.40
9057;DHT22;4563;54.756;9.400;2023-11-19T12:35:07;13.20;85.40
9057;DHT22;4563;54.756;9.400;2023-11-19T12:37:41;13.30;85.50
9057;DHT22;4563;54.756;9.400;2023-11-19T12:40:13;13.20;85.30
9057;DHT22;4563;54.756;9.400;2023-11-19T12:42:40;13.30;85.50
9057;DHT22;4563;54.756;9.400;2023-11-19T12:45:08;13.30;85.40
9057;DHT22;4563;54.756;9.400;2023-11-19T12:47:36;13.30;85.40
9057;DHT22;4563;54.756;9.400;2023-11-19T12:50:04;13.30;85.40
9057;DHT22;4563;54.756;9.400;2023-11-19T12:52:32;13.40;85.50
9057;DHT22;4563;54.756;9.400;2023-11-19T12:55:00;13.40;85.40
9057;DHT22;4563;54.756;9.400;2023-11-19T12:57:37;13.40;85.40
9057;DHT22;4563;54.756;9.400;2023-11-19T13:00:05;13.40;85.30
9057;DHT22;4563;54.756;9.400;2023-11-19T13:02:47;13.40;85.40
9057;DHT22;4563;54.756;9.400;2023-11-19T13:05:23;13.40;85.20
9057;DHT22;4563;54.756;9.400;2023-11-19T13:07:49;13.40;85.30
9057;DHT22;4563;54.756;9.400;2023-11-19T13:10:18;13.40;85.30
9057;DHT22;4563;54.756;9.400;2023-11-19T13:12:45;13.40;85.40
9057;DHT22;4563;54.756;9.400;2023-11-19T13:15:25;13.40;85.40
9057;DHT22;4563;54.756;9.400;2023-11-19T13:17:52;13.40;85.30
9057;DHT22;4563;54.756;9.400;2023-11-19T13:20:19;13.50;85.40
9057;DHT22;4563;54.756;9.400;2023-11-19T13:22:54;13.40;85.30
9057;DHT22;4563;54.756;9.400;2023-11-19T13:25:23;13.50;85.30
9057;DHT22;4563;54.756;9.400;2023-11-19T13:27:50;13.50;85.40
9057;DHT22;4563;54.756;9.400;2023-11-19T13:30:17;13.40;85.30
9057;DHT22;4563;54.756;9.400;2023-11-19T13:32:44;13.40;85.30
9057;DHT22;4563;54.756;9.400;2023-11-19T13:35:11;13.40;85.30
9057;DHT22;4563;54.756;9.400;2023-11-19T13:37:38;13.40;85.30
9057;DHT22;4563;54.756;9.400;2023-11-19T13:40:07;13.40;85.30
9057;DHT22;4563;54.756;9.400;2023-11-19T13:42:36;13.40;85.30
9057;DHT22;4563;54.756;9.400;2023-11-19T13:45:07;13.50;85.50
9057;DHT22;4563;54.756;9.400;2023-11-19T13:47:36;13.40;85.40
9057;DHT22;4563;54.756;9.400;2023-11-19T13:50:04;13.40;85.30
9057;DHT22;4563;54.756;9.400;2023-11-19T13:52:32;13.50;85.50
9057;DHT22;4563;54.756;9.400;2023-11-19T13:54:58;13.40;85.40
9057;DHT22;4563;54.756;9.400;2023-11-19T13:57:25;13.40;85.40
9057;DHT22;4563;54.756;9.400;2023-11-19T13:59:53;13.50;85.50
9057;DHT22;4563;54.756;9.400;2023-11-19T14:02:20;13.40;85.40
9057;DHT22;4563;54.756;9.400;2023-11-19T14:04:47;13.40;85.40
9057;DHT22;4563;54.756;9.400;2023-11-19T14:07:14;13.40;85.40
9057;DHT22;4563;54.756;9.400;2023-11-19T14:09:42;13.40;85.40
9057;DHT22;4563;54.756;9.400;2023-11-19T14:12:09;13.40;86.20
9057;DHT22;4563;54.756;9.400;2023-11-19T14:14:38;13.40;85.50
9057;DHT22;4563;54.756;9.400;2023-11-19T14:17:07;13.40;85.50
9057;DHT22;4563;54.756;9.400;2023-11-19T14:19:34;13.40;85.50
9057;DHT22;4563;54.756;9.400;2023-11-19T14:22:00;13.40;85.50
9057;DHT22;4563;54.756;9.400;2023-11-19T14:24:29;13.40;85.50
9057;DHT22;4563;54.756;9.400;2023-11-19T14:26:55;13.40;85.50
9057;DHT22;4563;54.756;9.400;2023-11-19T14:29:24;13.40;85.50
9057;DHT22;4563;54.756;9.400;2023-11-19T14:31:51;13.40;85.50
9057;DHT22;4563;54.756;9.400;2023-11-19T14:34:20;13.30;85.40
9057;DHT22;4563;54.756;9.400;2023-11-19T14:36:47;13.30;85.40
9057;DHT22;4563;54.756;9.400;2023-11-19T14:39:15;13.30;85.50
9057;DHT22;4563;54.756;9.400;2023-11-19T14:41:42;13.30;85.50
9057;DHT22;4563;54.756;9.400;2023-11-19T14:44:11;13.30;85.50
9057;DHT22;4563;54.756;9.400;2023-11-19T14:46:38;13.30;85.50
9057;DHT22;4563;54.756;9.400;2023-11-19T14:49:04;13.30;85.50
9057;DHT22;4563;54.756;9.400;2023-11-19T14:51:36;13.30;85.50
9057;DHT22;4563;54.756;9.400;2023-11-19T14:54:03;13.30;85.50
9057;DHT22;4563;54.756;9.400;2023-11-19T14:56:30;13.30;85.60
9057;DHT22;4563;54.756;9.400;2023-11-19T14:58:57;13.30;85.60
9057;DHT22;4563;54.756;9.400;2023-11-19T15:01:24;13.30;85.60
9057;DHT22;4563;54.756;9.400;2023-11-19T15:03:51;13.30;85.60
9057;DHT22;4563;54.756;9.400;2023-11-19T15:06:18;13.30;86.30
9057;DHT22;4563;54.756;9.400;2023-11-19T15:08:46;13.30;85.70
9057;DHT22;4563;54.756;9.400;2023-11-19T15:11:13;13.30;85.60
9057;DHT22;4563;54.756;9.400;2023-11-19T15:13:39;13.20;85.50
9057;DHT22;4563;54.756;9.400;2023-11-19T15:16:08;13.20;85.50
9057;DHT22;4563;54.756;9.400;2023-11-19T15:18:36;13.30;85.70
9057;DHT22;4563;54.756;9.400;2023-11-19T15:21:03;13.30;85.70
9057;DHT22;4563;54.756;9.400;2023-11-19T15:23:30;13.30;85.70
9057;DHT22;4563;54.756;9.400;2023-11-19T15:25:58;13.20;85.60
9057;DHT22;4563;54.756;9.400;2023-11-19T15:28:25;13.20;85.60
9057;DHT22;4563;54.756;9.400;2023-11-19T15:30:52;13.20;85.60
9057;DHT22;4563;54.756;9.400;2023-11-19T15:33:18;13.20;85.60
9057;DHT22;4563;54.756;9.400;2023-11-19T15:35:45;13.20;85.70
9057;DHT22;4563;54.756;9.400;2023-11-19T15:38:12;13.20;85.70
9057;DHT22;4563;54.756;9.400;2023-11-19T15:40:39;13.20;85.70
9057;DHT22;4563;54.756;9.400;2023-11-19T15:43:09;13.20;85.70
9057;DHT22;4563;54.756;9.400;2023-11-19T15:45:36;13.20;85.70
9057;DHT22;4563;54.756;9.400;2023-11-19T15:48:05;13.20;85.70
9057;DHT22;4563;54.756;9.400;2023-11-19T15:50:32;13.20;85.80
9057;DHT22;4563;54.756;9.400;2023-11-19T15:52:59;13.20;85.80
9057;DHT22;4563;54.756;9.400;2023-11-19T15:55:27;13.10;85.60
9057;DHT22;4563;54.756;9.400;2023-11-19T15:57:53;13.20;85.70
9057;DHT22;4563;54.756;9.400;2023-11-19T16:00:22;13.10;85.70
9057;DHT22;4563;54.756;9.400;2023-11-19T16:02:49;13.10;85.60
9057;DHT22;4563;54.756;9.400;2023-11-19T16:05:16;13.10;85.70
9057;DHT22;4563;54.756;9.400;2023-11-19T16:07:43;13.10;85.70
9057;DHT22;4563;54.756;9.400;2023-11-19T16:10:10;13.10;85.70
9057;DHT22;4563;54.756;9.400;2023-11-19T16:12:38;13.10;85.70
9057;DHT22;4563;54.756;9.400;2023-11-19T16:15:06;13.10;85.70